createdAt,value
2018-11-05T00:00:23.548Z,11.60
2018-11-05T00:02:53.292Z,11.52
2018-11-05T00:05:22.906Z,11.46
2018-11-05T00:07:52.261Z,11.37
2018-11-05T00:10:21.424Z,11.33
2018-11-05T00:12:50.631Z,11.44
2018-11-05T00:15:20.168Z,11.45
2018-11-05T00:17:49.327Z,11.36
2018-11-05T00:20:18.805Z,11.37
2018-11-05T00:22:47.952Z,11.32
2018-11-05T00:25:18.867Z,11.42
2018-11-05T00:27:48.017Z,11.42
2018-11-05T00:30:18.363Z,11.39
2018-11-05T00:32:47.541Z,11.30
2018-11-05T00:35:17.682Z,11.30
2018-11-05T00:37:46.827Z,11.32
2018-11-05T00:40:17.639Z,11.33
2018-11-05T00:42:46.860Z,11.40
2018-11-05T00:45:17.089Z,11.41
2018-11-05T00:47:46.226Z,11.50
2018-11-05T00:50:17.459Z,11.48
2018-11-05T00:52:46.638Z,11.41
2018-11-05T00:55:18.004Z,11.33
2018-11-05T00:57:47.185Z,11.40
2018-11-05T01:00:17.729Z,11.32
2018-11-05T01:02:46.969Z,11.33
2018-11-05T01:05:17.735Z,11.37
2018-11-05T01:07:47.011Z,11.47
2018-11-05T01:10:17.522Z,11.40
2018-11-05T01:12:46.689Z,11.42
2018-11-05T01:15:17.994Z,11.30
2018-11-05T01:17:47.165Z,11.41
2018-11-05T01:20:17.429Z,11.45
2018-11-05T01:22:46.605Z,11.50
2018-11-05T01:25:17.138Z,11.42
2018-11-05T01:27:46.312Z,11.42
2018-11-05T01:30:17.189Z,11.45
2018-11-05T01:32:46.407Z,11.42
2018-11-05T01:35:16.393Z,11.48
2018-11-05T01:37:45.583Z,11.49
2018-11-05T01:40:16.890Z,11.48
2018-11-05T01:42:46.097Z,11.49
2018-11-05T01:45:16.391Z,11.50
2018-11-05T01:47:45.620Z,11.45
2018-11-05T01:50:16.613Z,11.40
2018-11-05T01:52:45.920Z,11.45
2018-11-05T01:55:15.764Z,11.47
2018-11-05T01:57:44.929Z,11.38
2018-11-05T02:00:18.027Z,11.40
2018-11-05T02:02:47.644Z,11.33
2018-11-05T02:05:17.751Z,11.33
2018-11-05T02:07:47.129Z,11.51
2018-11-05T02:10:18.678Z,11.40
2018-11-05T02:12:47.903Z,11.46
2018-11-05T02:15:18.882Z,11.52
2018-11-05T02:17:48.079Z,11.58
2018-11-05T02:20:18.651Z,11.56
2018-11-05T02:22:47.889Z,11.59
2018-11-05T02:25:18.261Z,11.68
2018-11-05T02:27:47.572Z,11.63
2018-11-05T02:30:19.707Z,11.48
2018-11-05T02:32:49.001Z,11.71
2018-11-05T02:35:19.792Z,11.58
2018-11-05T02:37:49.010Z,11.48
2018-11-05T02:40:20.905Z,11.49
2018-11-05T02:42:50.629Z,11.64
2018-11-05T02:45:20.553Z,11.51
2018-11-05T02:47:49.772Z,11.57
2018-11-05T02:50:19.434Z,11.52
2018-11-05T02:52:49.380Z,11.58
2018-11-05T02:55:19.064Z,11.52
2018-11-05T02:57:48.273Z,11.51
2018-11-05T03:00:19.535Z,11.55
2018-11-05T03:02:49.433Z,11.63
2018-11-05T03:05:20.582Z,11.59
2018-11-05T03:07:50.231Z,11.57
2018-11-05T03:10:19.437Z,11.65
2018-11-05T03:12:48.990Z,11.63
2018-11-05T03:15:19.704Z,11.48
2018-11-05T03:17:48.942Z,11.53
2018-11-05T03:20:18.508Z,11.52
2018-11-05T03:22:47.733Z,11.45
2018-11-05T03:25:18.575Z,11.57
2018-11-05T03:27:47.751Z,11.50
2018-11-05T03:30:19.263Z,11.39
2018-11-05T03:32:48.520Z,11.47
2018-11-05T03:35:18.234Z,11.42
2018-11-05T03:37:47.565Z,11.46
2018-11-05T03:40:17.677Z,11.47
2018-11-05T03:42:46.812Z,11.51
2018-11-05T03:45:17.688Z,11.58
2018-11-05T03:47:46.899Z,11.61
2018-11-05T03:50:19.176Z,11.47
2018-11-05T03:55:18.291Z,11.56
2018-11-05T03:57:47.483Z,11.50
2018-11-05T04:00:18.496Z,11.43
2018-11-05T04:02:47.757Z,11.44
2018-11-05T04:05:17.040Z,11.52
2018-11-05T04:07:46.234Z,11.44
2018-11-05T04:10:17.276Z,11.46
2018-11-05T04:12:46.472Z,11.51
2018-11-05T04:15:16.412Z,11.42
2018-11-05T04:17:45.545Z,11.41
2018-11-05T04:20:15.965Z,11.37
2018-11-05T04:22:45.510Z,11.40
2018-11-05T04:25:15.378Z,11.35
2018-11-05T04:27:44.535Z,11.40
2018-11-05T04:30:15.493Z,11.36
2018-11-05T04:32:44.720Z,11.41
2018-11-05T04:35:15.361Z,11.53
2018-11-05T04:37:44.534Z,11.36
2018-11-05T04:40:13.832Z,11.43
2018-11-05T04:42:43.080Z,11.31
2018-11-05T04:45:14.227Z,11.45
2018-11-05T04:47:43.885Z,11.43
2018-11-05T04:50:14.075Z,11.45
2018-11-05T04:52:44.071Z,11.45
2018-11-05T04:55:14.264Z,11.56
2018-11-05T04:57:43.442Z,11.71
2018-11-05T05:00:17.697Z,11.57
2018-11-05T05:02:46.907Z,11.51
2018-11-05T05:05:17.533Z,11.52
2018-11-05T05:07:47.558Z,11.60
2018-11-05T05:10:17.335Z,11.68
2018-11-05T05:12:46.532Z,11.50
2018-11-05T05:15:17.526Z,11.59
2018-11-05T05:17:46.703Z,11.62
2018-11-05T05:20:17.749Z,11.58
2018-11-05T05:22:47.096Z,11.58
2018-11-05T05:25:17.273Z,11.54
2018-11-05T05:27:46.443Z,11.46
2018-11-05T05:30:18.635Z,11.45
2018-11-05T05:32:48.774Z,11.34
2018-11-05T05:35:19.293Z,11.40
2018-11-05T05:37:48.496Z,11.36
2018-11-05T05:40:19.316Z,11.35
2018-11-05T05:42:48.532Z,11.37
2018-11-05T05:45:19.958Z,11.39
2018-11-05T05:47:49.197Z,11.40
2018-11-05T05:50:18.541Z,11.41
2018-11-05T05:52:48.874Z,11.37
2018-11-05T05:55:18.382Z,11.38
2018-11-05T05:57:48.358Z,11.40
2018-11-05T06:00:18.929Z,11.46
2018-11-05T06:02:48.517Z,11.48
2018-11-05T06:05:18.518Z,11.49
2018-11-05T06:07:47.712Z,11.47
2018-11-05T06:10:17.035Z,11.48
2018-11-05T06:12:46.285Z,11.53
2018-11-05T06:15:16.511Z,11.56
2018-11-05T06:17:45.778Z,11.54
2018-11-05T06:20:16.967Z,11.49
2018-11-05T06:22:46.987Z,11.53
2018-11-05T06:25:16.329Z,11.57
2018-11-05T06:27:45.596Z,11.56
2018-11-05T06:30:17.634Z,11.55
2018-11-05T06:32:47.585Z,11.61
2018-11-05T06:35:16.829Z,11.61
2018-11-05T06:37:46.083Z,11.68
2018-11-05T06:40:16.673Z,11.57
2018-11-05T06:42:46.280Z,11.75
2018-11-05T06:45:16.660Z,11.75
2018-11-05T06:47:46.327Z,11.68
2018-11-05T06:50:24.884Z,11.65
2018-11-05T06:52:54.173Z,11.67
2018-11-05T06:55:23.355Z,11.91
2018-11-05T06:57:52.637Z,11.95
2018-11-05T07:00:25.711Z,11.78
2018-11-05T07:02:54.926Z,11.68
2018-11-05T07:05:24.764Z,11.65
2018-11-05T07:07:53.959Z,11.72
2018-11-05T07:10:23.193Z,11.94
2018-11-05T07:12:52.422Z,11.79
2018-11-05T07:15:21.865Z,11.80
2018-11-05T07:17:51.197Z,11.93
2018-11-05T07:20:21.456Z,11.76
2018-11-05T07:22:51.366Z,11.70
2018-11-05T07:25:20.637Z,11.66
2018-11-05T07:27:49.948Z,11.67
2018-11-05T07:30:22.050Z,11.70
2018-11-05T07:32:52.375Z,11.71
2018-11-05T07:35:21.589Z,11.75
2018-11-05T07:37:50.890Z,11.96
2018-11-05T07:40:20.575Z,12.02
2018-11-05T07:42:49.803Z,12.12
2018-11-05T07:45:22.411Z,11.90
2018-11-05T07:47:51.853Z,11.88
2018-11-05T07:50:21.875Z,11.84
2018-11-05T07:52:51.555Z,11.81
2018-11-05T07:55:20.924Z,11.90
2018-11-05T07:57:50.684Z,11.89
2018-11-05T08:00:25.238Z,11.93
2018-11-05T08:02:55.838Z,11.92
2018-11-05T08:05:25.131Z,11.85
2018-11-05T08:07:54.487Z,11.93
2018-11-05T08:10:23.726Z,12.01
2018-11-05T08:12:53.042Z,11.98
2018-11-05T08:15:23.318Z,12.31
2018-11-05T08:17:53.132Z,12.51
2018-11-05T08:20:22.369Z,12.36
2018-11-05T08:22:51.560Z,12.18
2018-11-05T08:25:20.784Z,12.33
2018-11-05T08:27:50.008Z,12.10
2018-11-05T08:30:20.585Z,12.06
2018-11-05T08:32:49.812Z,12.22
2018-11-05T08:35:19.129Z,12.16
2018-11-05T08:37:48.739Z,12.46
2018-11-05T08:40:19.956Z,12.25
2018-11-05T08:42:49.967Z,12.29
2018-11-05T08:45:20.360Z,12.58
2018-11-05T08:47:49.552Z,12.62
2018-11-05T08:50:19.844Z,12.43
2018-11-05T08:52:49.038Z,12.97
2018-11-05T08:55:19.630Z,12.89
2018-11-05T08:57:49.099Z,12.85
2018-11-05T09:00:23.957Z,12.62
2018-11-05T09:02:53.744Z,12.97
2018-11-05T09:05:23.327Z,12.90
2018-11-05T09:07:53.289Z,13.14
2018-11-05T09:10:23.216Z,13.16
2018-11-05T09:12:52.232Z,13.41
2018-11-05T09:15:22.228Z,13.48
2018-11-05T09:17:51.670Z,13.52
2018-11-05T09:20:21.047Z,13.54
2018-11-05T09:22:50.858Z,13.22
2018-11-05T09:25:20.114Z,13.26
2018-11-05T09:27:49.345Z,13.58
2018-11-05T09:30:19.827Z,13.70
2018-11-05T09:32:49.129Z,13.64
2018-11-05T09:35:18.400Z,13.47
2018-11-05T09:37:47.706Z,13.47
2018-11-05T09:40:20.571Z,13.37
2018-11-05T09:42:50.230Z,13.71
2018-11-05T09:45:23.799Z,13.83
2018-11-05T09:47:53.040Z,13.95
2018-11-05T09:50:22.563Z,13.60
2018-11-05T09:52:51.804Z,13.29
2018-11-05T09:55:21.071Z,13.37
2018-11-05T09:57:50.292Z,13.46
2018-11-05T10:00:22.954Z,13.43
2018-11-05T10:02:57.621Z,13.69
2018-11-05T10:05:26.778Z,13.47
2018-11-05T10:07:56.007Z,13.44
2018-11-05T10:10:25.404Z,13.73
2018-11-05T10:12:54.487Z,13.64
2018-11-05T10:15:23.688Z,13.79
2018-11-05T10:17:52.891Z,14.03
2018-11-05T10:20:23.250Z,14.24
2018-11-05T10:22:52.424Z,14.69
2018-11-05T10:25:21.835Z,14.39
2018-11-05T10:27:51.826Z,14.44
2018-11-05T10:30:25.163Z,14.28
2018-11-05T10:32:54.435Z,14.68
2018-11-05T10:35:28.862Z,14.17
2018-11-05T10:37:58.068Z,14.61
2018-11-05T10:40:27.364Z,14.64
2018-11-05T10:42:56.443Z,15.03
2018-11-05T10:45:25.703Z,14.89
2018-11-05T10:47:54.928Z,15.37
2018-11-05T10:50:24.184Z,15.31
2018-11-05T10:52:53.418Z,15.72
2018-11-05T10:55:22.655Z,14.83
2018-11-05T10:57:51.837Z,14.44
2018-11-05T11:00:27.945Z,14.26
2018-11-05T11:03:03.403Z,14.85
2018-11-05T11:05:36.841Z,15.43
2018-11-05T11:08:07.412Z,15.71
2018-11-05T11:10:37.738Z,15.30
2018-11-05T11:13:08.099Z,15.04
2018-11-05T11:15:38.423Z,15.49
2018-11-05T11:18:08.065Z,15.37
2018-11-05T11:20:37.244Z,15.49
2018-11-05T11:23:06.507Z,16.21
2018-11-05T11:25:35.683Z,16.39
2018-11-05T11:28:05.394Z,16.38
2018-11-05T11:30:34.479Z,15.86
2018-11-05T11:33:03.763Z,16.07
2018-11-05T11:35:32.991Z,15.96
2018-11-05T11:38:02.191Z,15.90
2018-11-05T11:40:31.413Z,15.86
2018-11-05T11:43:00.598Z,16.03
2018-11-05T11:45:29.828Z,16.44
2018-11-05T11:47:59.052Z,16.40
2018-11-05T11:50:28.244Z,16.09
2018-11-05T11:52:57.574Z,15.81
2018-11-05T11:55:26.678Z,16.03
2018-11-05T11:57:55.913Z,16.04
2018-11-05T12:00:26.058Z,16.31
2018-11-05T12:02:55.294Z,16.25
2018-11-05T12:05:24.556Z,16.32
2018-11-05T12:07:53.691Z,16.19
2018-11-05T12:10:24.027Z,16.12
2018-11-05T12:12:53.274Z,16.02
2018-11-05T12:15:23.101Z,16.03
2018-11-05T12:17:53.182Z,16.29
2018-11-05T12:20:23.710Z,16.36
2018-11-05T12:22:53.346Z,16.60
2018-11-05T12:25:22.570Z,16.87
2018-11-05T12:27:51.815Z,16.94
2018-11-05T12:30:22.282Z,17.05
2018-11-05T12:32:52.327Z,16.88
2018-11-05T12:35:21.529Z,17.03
2018-11-05T12:37:51.832Z,16.62
2018-11-05T12:40:21.859Z,16.71
2018-11-05T12:42:51.492Z,16.83
2018-11-05T12:45:20.708Z,16.82
2018-11-05T12:47:49.903Z,16.68
2018-11-05T12:50:20.607Z,16.63
2018-11-05T12:52:50.745Z,16.51
2018-11-05T12:55:19.955Z,16.06
2018-11-05T12:57:49.360Z,15.97
2018-11-05T13:00:20.517Z,15.90
2018-11-05T13:02:56.828Z,15.98
2018-11-05T13:05:26.951Z,15.91
2018-11-05T13:07:56.192Z,15.74
2018-11-05T13:10:25.726Z,15.41
2018-11-05T13:12:54.904Z,15.57
2018-11-05T13:15:24.272Z,15.78
2018-11-05T13:17:53.367Z,15.61
2018-11-05T13:20:23.504Z,15.73
2018-11-05T13:22:52.806Z,15.88
2018-11-05T13:25:22.036Z,15.88
2018-11-05T13:27:51.726Z,15.84
2018-11-05T13:30:20.968Z,15.44
2018-11-05T13:32:50.172Z,15.66
2018-11-05T13:35:20.707Z,16.04
2018-11-05T13:37:50.168Z,16.02
2018-11-05T13:40:20.345Z,16.16
2018-11-05T13:42:50.064Z,16.44
2018-11-05T13:45:19.921Z,16.33
2018-11-05T13:47:49.932Z,16.66
2018-11-05T13:50:18.766Z,16.89
2018-11-05T13:52:47.633Z,16.99
2018-11-05T13:55:17.360Z,16.86
2018-11-05T13:57:47.646Z,17.09
2018-11-05T14:00:19.291Z,16.54
2018-11-05T14:02:48.670Z,16.30
2018-11-05T14:05:17.892Z,15.97
2018-11-05T14:07:47.122Z,16.01
2018-11-05T14:10:17.724Z,15.99
2018-11-05T14:12:47.400Z,15.53
2018-11-05T14:15:16.589Z,15.84
2018-11-05T14:17:46.149Z,16.00
2018-11-05T14:20:16.375Z,15.92
2018-11-05T14:22:45.634Z,16.12
2018-11-05T14:25:16.036Z,16.12
2018-11-05T14:27:46.726Z,16.03
2018-11-05T14:30:15.971Z,16.41
2018-11-05T14:32:46.276Z,16.73
2018-11-05T14:35:15.497Z,16.39
2018-11-05T14:37:44.719Z,16.29
2018-11-05T14:40:15.479Z,15.97
2018-11-05T14:42:44.685Z,15.97
2018-11-05T14:45:15.103Z,15.64
2018-11-05T14:47:45.132Z,15.67
2018-11-05T14:50:15.960Z,16.07
2018-11-05T14:52:45.169Z,15.82
2018-11-05T14:55:15.953Z,16.07
2018-11-05T14:57:46.001Z,16.04
2018-11-05T15:00:20.099Z,15.64
2018-11-05T15:02:49.862Z,15.76
2018-11-05T15:05:19.055Z,15.39
2018-11-05T15:07:49.050Z,15.33
2018-11-05T15:10:19.655Z,15.17
2018-11-05T15:12:48.966Z,15.23
2018-11-05T15:15:18.703Z,15.10
2018-11-05T15:17:48.252Z,15.03
2018-11-05T15:20:18.877Z,15.07
2018-11-05T15:22:47.822Z,14.96
2018-11-05T15:25:17.849Z,14.82
2018-11-05T15:27:47.024Z,14.79
2018-11-05T15:30:17.579Z,14.70
2018-11-05T15:32:46.935Z,14.64
2018-11-05T15:35:16.350Z,14.53
2018-11-05T15:37:45.700Z,14.43
2018-11-05T15:40:16.165Z,14.49
2018-11-05T15:42:45.360Z,14.42
2018-11-05T15:45:15.961Z,14.35
2018-11-05T15:47:45.226Z,14.24
2018-11-05T15:50:15.649Z,14.21
2018-11-05T15:52:45.142Z,14.21
2018-11-05T15:55:14.659Z,14.11
2018-11-05T15:57:43.866Z,14.03
2018-11-05T16:00:21.464Z,14.07
2018-11-05T16:03:04.921Z,13.95
2018-11-05T16:05:34.151Z,13.88
2018-11-05T16:08:03.369Z,13.81
2018-11-05T16:10:32.550Z,13.76
2018-11-05T16:13:01.773Z,13.70
2018-11-05T16:15:30.961Z,13.71
2018-11-05T16:18:00.176Z,13.68
2018-11-05T16:20:29.338Z,13.69
2018-11-05T16:22:58.519Z,13.71
2018-11-05T16:25:27.749Z,13.74
2018-11-05T16:27:56.910Z,13.71
2018-11-05T16:30:26.138Z,13.69
2018-11-05T16:32:55.375Z,13.66
2018-11-05T16:35:24.574Z,13.59
2018-11-05T16:37:53.746Z,13.56
2018-11-05T16:40:24.152Z,13.52
2018-11-05T16:42:53.544Z,13.52
2018-11-05T16:45:22.744Z,13.49
2018-11-05T16:47:52.033Z,13.47
2018-11-05T16:50:22.931Z,13.44
2018-11-05T16:52:52.118Z,13.44
2018-11-05T16:55:21.542Z,13.44
2018-11-05T16:57:50.862Z,13.44
2018-11-05T17:00:20.435Z,13.45
2018-11-05T17:02:50.274Z,13.49
2018-11-05T17:05:19.242Z,13.50
2018-11-05T17:07:48.468Z,13.52
2018-11-05T17:10:19.190Z,13.53
2018-11-05T17:12:48.382Z,13.53
2018-11-05T17:15:20.913Z,13.47
2018-11-05T17:17:50.131Z,13.47
2018-11-05T17:20:21.153Z,13.47
2018-11-05T17:22:50.334Z,13.50
2018-11-05T17:25:19.604Z,13.49
2018-11-05T17:27:48.886Z,13.48
2018-11-05T17:30:21.780Z,13.49
2018-11-05T17:32:51.940Z,13.47
2018-11-05T17:35:21.597Z,13.43
2018-11-05T17:37:50.936Z,13.40
2018-11-05T17:40:22.011Z,13.37
2018-11-05T17:42:51.940Z,13.43
2018-11-05T17:45:21.431Z,13.40
2018-11-05T17:47:50.875Z,13.37
2018-11-05T17:50:21.339Z,13.31
2018-11-05T17:52:50.623Z,13.26
2018-11-05T17:55:19.870Z,13.28
2018-11-05T17:57:49.370Z,13.21
2018-11-05T18:00:20.616Z,13.24
2018-11-05T18:02:49.956Z,13.19
2018-11-05T18:05:19.419Z,13.15
2018-11-05T18:07:48.680Z,13.28
2018-11-05T18:10:18.560Z,13.29
2018-11-05T18:12:47.728Z,13.21
2018-11-05T18:15:17.579Z,13.16
2018-11-05T18:17:47.104Z,13.04
2018-11-05T18:20:17.467Z,12.96
2018-11-05T18:22:46.639Z,12.85
2018-11-05T18:25:18.710Z,12.70
2018-11-05T18:27:48.023Z,12.63
2018-11-05T18:30:18.251Z,12.54
2018-11-05T18:32:47.753Z,12.47
2018-11-05T18:35:17.813Z,12.42
2018-11-05T18:37:48.558Z,12.31
2018-11-05T18:40:18.285Z,12.14
2018-11-05T18:42:47.540Z,12.06
2018-11-05T18:45:18.458Z,12.08
2018-11-05T18:47:47.710Z,12.11
2018-11-05T18:50:17.653Z,12.08
2018-11-05T18:52:46.903Z,12.01
2018-11-05T18:55:17.731Z,11.96
2018-11-05T18:57:46.940Z,11.88
2018-11-05T19:00:20.836Z,11.82
2018-11-05T19:02:50.990Z,11.78
2018-11-05T19:05:20.945Z,11.76
2018-11-05T19:07:50.373Z,11.71
2018-11-05T19:10:19.915Z,11.70
2018-11-05T19:12:49.729Z,11.70
2018-11-05T19:15:19.884Z,11.69
2018-11-05T19:17:49.694Z,11.66
2018-11-05T19:20:19.651Z,11.61
2018-11-05T19:22:49.087Z,11.58
2018-11-05T19:25:19.193Z,11.55
2018-11-05T19:27:48.370Z,11.56
2018-11-05T19:30:22.301Z,11.48
2018-11-05T19:32:51.529Z,11.38
2018-11-05T19:35:20.777Z,11.30
2018-11-05T19:37:50.041Z,11.29
2018-11-05T19:40:20.048Z,11.34
2018-11-05T19:42:49.825Z,11.29
2018-11-05T19:45:20.191Z,11.36
2018-11-05T19:47:50.133Z,11.30
2018-11-05T19:50:21.209Z,11.24
2018-11-05T19:52:51.115Z,11.19
2018-11-05T19:55:20.650Z,11.14
2018-11-05T19:57:50.589Z,11.15
2018-11-05T20:00:25.563Z,11.07
2018-11-05T20:02:55.189Z,11.03
2018-11-05T20:05:24.383Z,11.01
2018-11-05T20:07:54.310Z,10.97
2018-11-05T20:10:23.533Z,10.97
2018-11-05T20:12:52.809Z,11.01
2018-11-05T20:15:22.116Z,10.96
2018-11-05T20:17:52.370Z,10.93
2018-11-05T20:20:22.581Z,10.87
2018-11-05T20:22:52.044Z,10.83
2018-11-05T20:25:21.287Z,10.76
2018-11-05T20:27:50.502Z,10.72
2018-11-05T20:30:21.871Z,10.77
2018-11-05T20:32:52.337Z,10.77
2018-11-05T20:35:21.249Z,10.72
2018-11-05T20:37:50.473Z,10.61
2018-11-05T20:40:21.751Z,10.57
2018-11-05T20:42:51.701Z,10.57
2018-11-05T20:45:21.928Z,10.54
2018-11-05T20:47:51.156Z,10.52
2018-11-05T20:50:21.278Z,10.54
2018-11-05T20:52:50.471Z,10.63
2018-11-05T20:55:20.555Z,10.49
2018-11-05T20:57:49.749Z,10.45
2018-11-05T21:00:20.199Z,10.44
2018-11-05T21:02:49.448Z,10.34
2018-11-05T21:05:19.976Z,10.35
2018-11-05T21:07:49.177Z,10.33
2018-11-05T21:10:19.424Z,10.24
2018-11-05T21:12:48.682Z,10.21
2018-11-05T21:15:20.175Z,10.18
2018-11-05T21:17:50.229Z,10.15
2018-11-05T21:20:19.547Z,10.02
2018-11-05T21:22:49.322Z,9.92
2018-11-05T21:25:19.412Z,9.93
2018-11-05T21:27:48.643Z,9.90
2018-11-05T21:30:19.435Z,9.96
2018-11-05T21:32:48.703Z,9.94
2018-11-05T21:35:19.814Z,9.90
2018-11-05T21:37:49.041Z,9.85
2018-11-05T21:40:19.298Z,9.82
2018-11-05T21:42:48.512Z,9.86
2018-11-05T21:45:18.391Z,9.80
2018-11-05T21:47:47.575Z,9.78
2018-11-05T21:50:19.026Z,9.81
2018-11-05T21:52:48.716Z,9.75
2018-11-05T21:55:19.639Z,9.71
2018-11-05T21:57:49.609Z,9.78
2018-11-05T22:00:21.996Z,9.79
2018-11-05T22:02:56.623Z,9.75
2018-11-05T22:05:25.839Z,9.71
2018-11-05T22:07:55.148Z,9.66
2018-11-05T22:10:24.388Z,9.57
2018-11-05T22:12:53.574Z,9.50
2018-11-05T22:15:22.805Z,9.55
2018-11-05T22:17:51.957Z,9.56
2018-11-05T22:20:21.192Z,9.58
2018-11-05T22:22:50.383Z,9.55
2018-11-05T22:25:20.996Z,9.49
2018-11-05T22:28:16.507Z,9.42
2018-11-05T22:30:45.697Z,9.49
2018-11-05T22:33:15.446Z,9.42
2018-11-05T22:35:44.693Z,9.39
2018-11-05T22:38:14.608Z,9.40
2018-11-05T22:40:43.833Z,9.42
2018-11-05T22:43:13.444Z,9.38
2018-11-05T22:45:42.630Z,9.37
2018-11-05T22:48:12.091Z,9.36
2018-11-05T22:50:41.315Z,9.37
2018-11-05T22:53:10.527Z,9.34
2018-11-05T22:55:39.748Z,9.33
2018-11-05T22:58:08.963Z,9.40
2018-11-05T23:00:43.445Z,9.39
2018-11-05T23:03:17.959Z,9.35
2018-11-05T23:05:47.136Z,9.26
2018-11-05T23:08:16.761Z,9.20
2018-11-05T23:10:45.934Z,9.20
2018-11-05T23:13:15.771Z,9.19
2018-11-05T23:15:45.045Z,9.15
2018-11-05T23:18:14.497Z,9.14
2018-11-05T23:20:43.783Z,9.10
2018-11-05T23:23:13.289Z,9.10
2018-11-05T23:25:43.306Z,9.44
2018-11-05T23:28:12.841Z,9.55
2018-11-05T23:30:42.047Z,9.61
2018-11-05T23:33:11.277Z,9.59
2018-11-05T23:35:40.500Z,9.79
2018-11-05T23:38:09.931Z,9.87
2018-11-05T23:40:39.190Z,9.96
2018-11-05T23:43:08.328Z,9.78
2018-11-05T23:45:37.513Z,9.58
2018-11-05T23:48:06.735Z,9.30
2018-11-05T23:50:35.936Z,9.11
2018-11-05T23:53:05.395Z,9.01
2018-11-05T23:55:34.705Z,8.96
2018-11-05T23:58:03.867Z,8.85
